^^
Grace C. Lehan Memorial Weather Station Historical Data
Daily Summary for February 19, 2021 Units:  Both    English   Metric
Daily Weekly Monthly Yearly
  High: Low: Average:
Temperature: 75.4 °F /  24.1 °C 74.4 °F /  23.6 °C 74.8 °F /  23.8 °C
Dew Point: 74.1 °F /  23.4 °C 69.2 °F /  20.7 °C 72.2 °F /  22.3 °C
Humidity: 96% 83% 92%
Wind Speed: 3.3mph /  5.3km/h - 0.2mph /  0.3km/h
Wind Gust: 13mph /  20.9km/h - -
Wind- - SE
Pressure: 30.08 in /  1018.5 hPa 29.88 in /  1011.7 hPa -
Precipitation: 5.47 in /  138.94 mm    
 
 
Tabular Data for February 19, 2021
Time Temperature Dew Point Pressure Wind Wind Speed Wind Gust Humidity Rainfall Rate (Hourly) solar
00:00 74.7 °F /  23.7 °C 69.2 °F /  20.7 °C 30.08in /  1018.5hPa Calm     83% 0.00in /  0mm 0 W/m2
00:09 74.7 °F /  23.7 °C 69.6 °F /  20.9 °C 30.08in /  1018.5hPa Calm     84% 0.00in /  0mm 0 W/m2
00:14 74.7 °F /  23.7 °C 69.6 °F /  20.9 °C 30.08in /  1018.5hPa Calm     84% 0.00in /  0mm 0 W/m2
00:19 74.7 °F /  23.7 °C 69.6 °F /  20.9 °C 30.08in /  1018.5hPa Calm     84% 0.00in /  0mm 0 W/m2
00:24 74.7 °F /  23.7 °C 69.6 °F /  20.9 °C 30.08in /  1018.5hPa Calm     84% 0.00in /  0mm 0 W/m2
00:29 74.7 °F /  23.7 °C 69.6 °F /  20.9 °C 30.08in /  1018.5hPa Calm   1mph /  1.6km/h 84.3% 0.00in /  0mm 0 W/m2
00:34 74.6 °F /  23.7 °C 69.8 °F /  21 °C 30.07in /  1018.2hPa Calm   1mph /  1.6km/h 85% 0.00in /  0mm 0 W/m2
00:39 74.6 °F /  23.7 °C 69.8 °F /  21 °C 30.07in /  1018.2hPa South 0.1mph /  0.2km/h 2mph /  3.2km/h 85% 0.00in /  0mm 0 W/m2
00:44 74.6 °F /  23.7 °C 69.8 °F /  21 °C 30.07in /  1018.2hPa Calm   2mph /  3.2km/h 85% 0.00in /  0mm 0 W/m2
00:49 74.6 °F /  23.7 °C 69.8 °F /  21 °C 30.07in /  1018.2hPa Calm   2mph /  3.2km/h 85% 0.00in /  0mm 0 W/m2
00:54 74.5 °F /  23.6 °C 69.9 °F /  21.1 °C 30.07in /  1018.2hPa Calm   2mph /  3.2km/h 85.4% 0.00in /  0mm 0 W/m2
00:59 74.5 °F /  23.6 °C 70.1 °F /  21.2 °C 30.07in /  1018.2hPa Calm   2mph /  3.2km/h 86% 0.00in /  0mm 0 W/m2
01:04 74.5 °F /  23.6 °C 70 °F /  21.1 °C 30.07in /  1018.2hPa Calm   2mph /  3.2km/h 86% 0.00in /  0mm 0 W/m2
01:09 74.5 °F /  23.6 °C 70.1 °F /  21.2 °C 30.07in /  1018.2hPa Calm     86.3% 0.00in /  0mm 0 W/m2
01:14 74.5 °F /  23.6 °C 70.4 °F /  21.3 °C 30.06in /  1017.8hPa Calm     87% 0.00in /  0mm 0 W/m2
01:19 74.5 °F /  23.6 °C 70.4 °F /  21.3 °C 30.06in /  1017.8hPa Calm     87% 0.00in /  0mm 0 W/m2
01:24 74.4 °F /  23.6 °C 70.3 °F /  21.3 °C 30.06in /  1017.8hPa Calm     87% 0.00in /  0mm 0 W/m2
01:29 74.4 °F /  23.6 °C 70.3 °F /  21.3 °C 30.06in /  1017.8hPa Calm   1mph /  1.6km/h 87% 0.00in /  0mm 0 W/m2
01:34 74.4 °F /  23.6 °C 70.6 °F /  21.4 °C 30.06in /  1017.8hPa Calm   1mph /  1.6km/h 87.9% 0.00in /  0mm 0 W/m2
01:39 74.4 °F /  23.6 °C 70.6 °F /  21.4 °C 30.06in /  1017.8hPa Calm     88% 0.00in /  0mm 0 W/m2
01:44 74.4 °F /  23.6 °C 70.6 °F /  21.4 °C 30.06in /  1017.8hPa Calm     88% 0.00in /  0mm 0 W/m2
01:49 74.5 °F /  23.6 °C 70.7 °F /  21.5 °C 30.05in /  1017.5hPa Calm     88% 0.00in /  0mm 0 W/m2
01:54 74.5 °F /  23.6 °C 70.7 °F /  21.5 °C 30.05in /  1017.5hPa Calm     88% 0.00in /  0mm 0 W/m2
01:59 74.5 °F /  23.6 °C 70.8 °F /  21.6 °C 30.05in /  1017.5hPa Calm     88.3% 0.00in /  0mm 0 W/m2
02:04 74.5 °F /  23.6 °C 71.1 °F /  21.7 °C 30.04in /  1017.2hPa Calm     89% 0.00in /  0mm 0 W/m2
02:09 74.6 °F /  23.7 °C 71.1 °F /  21.7 °C 30.04in /  1017.2hPa Calm     89% 0.00in /  0mm 0 W/m2
02:14 74.6 °F /  23.7 °C 71.2 °F /  21.8 °C 30.04in /  1017.2hPa Calm     89% 0.00in /  0mm 0 W/m2
02:19 74.6 °F /  23.7 °C 71.2 °F /  21.8 °C 30.04in /  1017.2hPa Calm     89% 0.00in /  0mm 0 W/m2
02:24 74.6 °F /  23.7 °C 71.2 °F /  21.8 °C 30.03in /  1016.8hPa Calm     89% 0.00in /  0mm 0 W/m2
02:29 74.7 °F /  23.7 °C 71.2 °F /  21.8 °C 30.03in /  1016.8hPa Calm     89% 0.00in /  0mm 0 W/m2
02:34 74.7 °F /  23.7 °C 71.3 °F /  21.8 °C 30.03in /  1016.8hPa Calm     89% 0.00in /  0mm 0 W/m2
02:39 74.7 °F /  23.7 °C 71.4 °F /  21.9 °C 30.03in /  1016.8hPa Calm     89.4% 0.00in /  0mm 0 W/m2
02:44 74.7 °F /  23.7 °C 71.6 °F /  22 °C 30.02in /  1016.5hPa Calm     90% 0.00in /  0mm 0 W/m2
02:49 74.8 °F /  23.8 °C 71.6 °F /  22 °C 30.02in /  1016.5hPa Calm     90% 0.00in /  0mm 0 W/m2
02:54 74.8 °F /  23.8 °C 71.7 °F /  22.1 °C 30.02in /  1016.5hPa Calm     90% 0.00in /  0mm 0 W/m2
02:59 74.8 °F /  23.8 °C 71.7 °F /  22.1 °C 30.02in /  1016.5hPa Calm     90% 0.00in /  0mm 0 W/m2
03:04 74.8 °F /  23.8 °C 71.7 °F /  22.1 °C 30.02in /  1016.5hPa Calm     90% 0.00in /  0mm 0 W/m2
03:09 74.8 °F /  23.8 °C 71.8 °F /  22.1 °C 30.02in /  1016.5hPa Calm     90.2% 0.00in /  0mm 0 W/m2
03:14 74.9 °F /  23.8 °C 72.1 °F /  22.3 °C 30.02in /  1016.5hPa Calm     91% 0.00in /  0mm 0 W/m2
03:19 74.9 °F /  23.8 °C 72.1 °F /  22.3 °C 30.02in /  1016.5hPa Calm     91% 0.00in /  0mm 0 W/m2
03:24 75 °F /  23.9 °C 72.2 °F /  22.3 °C 30.02in /  1016.5hPa Calm     91% 0.00in /  0mm 0 W/m2
03:29 75 °F /  23.9 °C 72.2 °F /  22.3 °C 30.01in /  1016.1hPa Calm     91% 0.00in /  0mm 0 W/m2
03:34 75.1 °F /  23.9 °C 72.3 °F /  22.4 °C 30.01in /  1016.1hPa Calm   1mph /  1.6km/h 91% 0.00in /  0mm 0 W/m2
03:39 75.1 °F /  23.9 °C 72.3 °F /  22.4 °C 30.01in /  1016.1hPa Calm   1mph /  1.6km/h 91% 0.00in /  0mm 0 W/m2
03:44 75.1 °F /  23.9 °C 72.3 °F /  22.4 °C 30.02in /  1016.5hPa Calm   1mph /  1.6km/h 91% 0.00in /  0mm 0 W/m2
03:49 75.1 °F /  23.9 °C 72.3 °F /  22.4 °C 30.01in /  1016.1hPa Calm   1mph /  1.6km/h 91% 0.00in /  0mm 0 W/m2
03:54 75.2 °F /  24 °C 72.4 °F /  22.4 °C 30.01in /  1016.1hPa Calm   1mph /  1.6km/h 91% 0.00in /  0mm 0 W/m2
03:59 75.2 °F /  24 °C 72.6 °F /  22.6 °C 30.01in /  1016.1hPa Calm   1mph /  1.6km/h 91.6% 0.00in /  0mm 0 W/m2
04:00 75.1 °F /  23.9 °C 72.6 °F /  22.6 °C 30.00in /  1015.8hPa Calm   1mph /  1.6km/h 92% 0.00in /  0mm 0 W/m2
04:09 75.1 °F /  23.9 °C 72.6 °F /  22.6 °C 30.00in /  1015.8hPa Calm     92% 0.02in /  0.51mm 0 W/m2
04:14 75.1 °F /  23.9 °C 72.6 °F /  22.6 °C 30.00in /  1015.8hPa Calm     92% 0.04in /  1.02mm 0 W/m2
04:19 75.1 °F /  23.9 °C 72.6 °F /  22.6 °C 30.00in /  1015.8hPa South 0.1mph /  0.2km/h 2mph /  3.2km/h 92% 0.06in /  1.52mm 0 W/m2
04:24 75.1 °F /  23.9 °C 72.7 °F /  22.6 °C 29.99in /  1015.5hPa Calm   2mph /  3.2km/h 92.3% 0.07in /  1.78mm 0 W/m2
04:29 75 °F /  23.9 °C 72.8 °F /  22.7 °C 29.99in /  1015.5hPa Calm   2mph /  3.2km/h 93% 0.09in /  2.29mm 0 W/m2
04:34 75 °F /  23.9 °C 72.8 °F /  22.7 °C 29.99in /  1015.5hPa Calm   2mph /  3.2km/h 93% 0.10in /  2.54mm 0 W/m2
04:39 75 °F /  23.9 °C 72.8 °F /  22.7 °C 29.98in /  1015.1hPa Calm     93% 0.11in /  2.79mm 0 W/m2
04:44 75 °F /  23.9 °C 72.8 °F /  22.7 °C 29.98in /  1015.1hPa Calm     93% 0.12in /  3.05mm 0 W/m2
04:49 75 °F /  23.9 °C 73 °F /  22.8 °C 29.98in /  1015.1hPa Calm   1mph /  1.6km/h 93.6% 0.13in /  3.3mm 0 W/m2
04:54 75 °F /  23.9 °C 73.2 °F /  22.9 °C 29.97in /  1014.8hPa Calm   1mph /  1.6km/h 94% 0.14in /  3.56mm 0 W/m2
04:59 75 °F /  23.9 °C 73.2 °F /  22.9 °C 29.97in /  1014.8hPa Calm   1mph /  1.6km/h 94% 0.16in /  4.06mm 0 W/m2
05:04 75.1 °F /  23.9 °C 73.2 °F /  22.9 °C 29.96in /  1014.4hPa Calm   1mph /  1.6km/h 94% 0.16in /  4.06mm 0 W/m2
05:09 75.1 °F /  23.9 °C 73.3 °F /  22.9 °C 29.97in /  1014.8hPa Calm   1mph /  1.6km/h 94% 0.09in /  2.29mm 0 W/m2
05:14 75.1 °F /  23.9 °C 73.3 °F /  22.9 °C 29.96in /  1014.4hPa Calm   1mph /  1.6km/h 94% 0.11in /  2.79mm 0 W/m2
05:19 75.1 °F /  23.9 °C 73.3 °F /  22.9 °C 29.96in /  1014.4hPa Calm   1mph /  1.6km/h 94% 0.14in /  3.56mm 0 W/m2
05:24 75.1 °F /  23.9 °C 73.3 °F /  22.9 °C 29.96in /  1014.4hPa SSE 0.1mph /  0.2km/h 2mph /  3.2km/h 94% 0.21in /  5.33mm 0 W/m2
05:29 75.2 °F /  24 °C 73.5 °F /  23.1 °C 29.97in /  1014.8hPa SE 0.6mph /  1km/h 3mph /  4.8km/h 94.5% 0.47in /  11.94mm 0 W/m2
05:34 75.3 °F /  24.1 °C 73.6 °F /  23.1 °C 29.97in /  1014.8hPa SE 0.5mph /  0.8km/h 3mph /  4.8km/h 94.6% 0.73in /  18.54mm 0 W/m2
05:39 75.2 °F /  24 °C 73.6 °F /  23.1 °C 29.94in /  1013.8hPa Calm   3mph /  4.8km/h 94.9% 0.78in /  19.81mm 0 W/m2
05:44 75.1 °F /  23.9 °C 73.6 °F /  23.1 °C 29.94in /  1013.8hPa East 2.6mph /  4.2km/h 13mph /  20.9km/h 95% 0.89in /  22.61mm 0 W/m2
05:49 75 °F /  23.9 °C 73.5 °F /  23.1 °C 29.94in /  1013.8hPa East 2.1mph /  3.4km/h 13mph /  20.9km/h 95% 0.93in /  23.62mm 0 W/m2
05:54 75 °F /  23.9 °C 73.5 °F /  23.1 °C 29.93in /  1013.4hPa East 1mph /  1.6km/h 13mph /  20.9km/h 95% 0.94in /  23.88mm 0 W/m2
05:59 74.9 °F /  23.8 °C 73.4 °F /  23 °C 29.92in /  1013.1hPa ESE 0.3mph /  0.5km/h 13mph /  20.9km/h 95% 0.94in /  23.88mm 0 W/m2
06:04 74.9 °F /  23.8 °C 73.4 °F /  23 °C 29.92in /  1013.1hPa East 1.6mph /  2.6km/h 13mph /  20.9km/h 95% 0.94in /  23.88mm 0 W/m2
06:09 74.9 °F /  23.8 °C 73.3 °F /  22.9 °C 29.92in /  1013.1hPa ESE 1.7mph /  2.7km/h 13mph /  20.9km/h 95% 0.89in /  22.61mm 0 W/m2
06:14 74.8 °F /  23.8 °C 73.3 °F /  22.9 °C 29.91in /  1012.8hPa ESE 0.8mph /  1.3km/h 13mph /  20.9km/h 95% 0.96in /  24.38mm 0 W/m2
06:19 74.7 °F /  23.7 °C 73.1 °F /  22.8 °C 29.91in /  1012.8hPa ESE 0.3mph /  0.5km/h 13mph /  20.9km/h 95% 0.99in /  25.15mm 0 W/m2
06:24 74.6 °F /  23.7 °C 73 °F /  22.8 °C 29.91in /  1012.8hPa ESE 0.1mph /  0.2km/h 13mph /  20.9km/h 95% 1.01in /  25.65mm 0 W/m2
06:29 74.5 °F /  23.6 °C 73 °F /  22.8 °C 29.91in /  1012.8hPa Calm   13mph /  20.9km/h 95% 1.04in /  26.42mm 0 W/m2
06:34 74.5 °F /  23.6 °C 73 °F /  22.8 °C 29.91in /  1012.8hPa Calm   13mph /  20.9km/h 95% 1.04in /  26.42mm 0 W/m2
06:39 74.5 °F /  23.6 °C 73 °F /  22.8 °C 29.90in /  1012.4hPa Calm     95% 0.74in /  18.8mm 0 W/m2
06:44 74.5 °F /  23.6 °C 73 °F /  22.8 °C 29.90in /  1012.4hPa Calm     95% 0.80in /  20.32mm 0 W/m2
06:49 74.5 °F /  23.6 °C 73 °F /  22.8 °C 29.90in /  1012.4hPa East 0.2mph /  0.3km/h 2mph /  3.2km/h 95% 0.94in /  23.88mm 0 W/m2
06:54 74.6 °F /  23.7 °C 73.1 °F /  22.8 °C 29.89in /  1012.1hPa ESE 0.3mph /  0.5km/h 4mph /  6.4km/h 95% 1.08in /  27.43mm 0 W/m2
06:59 74.6 °F /  23.7 °C 73.2 °F /  22.9 °C 29.89in /  1012.1hPa ESE 0.1mph /  0.2km/h 4mph /  6.4km/h 95.5% 1.29in /  32.77mm 0 W/m2
07:04 74.6 °F /  23.7 °C 73.1 °F /  22.8 °C 29.89in /  1012.1hPa ESE 0.6mph /  1km/h 4mph /  6.4km/h 95% 1.29in /  32.77mm 0 W/m2
07:09 74.7 °F /  23.7 °C 73.5 °F /  23.1 °C 29.89in /  1012.1hPa SE 0.9mph /  1.4km/h 6mph /  9.7km/h 96% 1.28in /  32.51mm 0 W/m2
07:14 74.8 °F /  23.8 °C 73.6 °F /  23.1 °C 29.88in /  1011.7hPa East 0.5mph /  0.8km/h 6mph /  9.7km/h 96% 1.39in /  35.31mm 0 W/m2
07:19 74.9 °F /  23.8 °C 73.7 °F /  23.2 °C 29.88in /  1011.7hPa East 0.7mph /  1.1km/h 6mph /  9.7km/h 96% 1.48in /  37.59mm 0 W/m2
07:24 74.9 °F /  23.8 °C 73.7 °F /  23.2 °C 29.88in /  1011.7hPa ESE 0.1mph /  0.2km/h 6mph /  9.7km/h 96% 1.72in /  43.69mm 0 W/m2
07:29 75 °F /  23.9 °C 73.8 °F /  23.2 °C 29.88in /  1011.7hPa Calm   6mph /  9.7km/h 96% 1.95in /  49.53mm 0 W/m2
07:34 75.1 °F /  23.9 °C 73.9 °F /  23.3 °C 29.88in /  1011.7hPa Calm   6mph /  9.7km/h 96% 2.05in /  52.07mm 0 W/m2
07:39 75.1 °F /  23.9 °C 73.9 °F /  23.3 °C 29.88in /  1011.7hPa Calm   1mph /  1.6km/h 96% 2.39in /  60.71mm 0 W/m2
07:44 75.2 °F /  24 °C 74 °F /  23.3 °C 29.88in /  1011.7hPa ESE 0.2mph /  0.3km/h 2mph /  3.2km/h 96% 2.64in /  67.06mm 0 W/m2
07:49 75.3 °F /  24.1 °C 74.1 °F /  23.4 °C 29.89in /  1012.1hPa NNW 2.7mph /  4.3km/h 10mph /  16.1km/h 96% 3.05in /  77.47mm 0 W/m2
07:54 75.4 °F /  24.1 °C 74.1 °F /  23.4 °C 29.88in /  1011.7hPa NW 3.3mph /  5.3km/h 11mph /  17.7km/h 96% 3.48in /  88.39mm 0 W/m2
07:59 75.2 °F /  24 °C 74 °F /  23.3 °C 29.89in /  1012.1hPa WSW 0.4mph /  0.6km/h 11mph /  17.7km/h 96% 3.70in /  93.98mm 0 W/m2
08:09 75.1 °F /  23.9 °C 73.9 °F /  23.3 °C 29.89in /  1012.1hPa Calm   1mph /  1.6km/h 96% 4.02in /  102.11mm 7 W/m2
08:14 75.1 °F /  23.9 °C 73.9 °F /  23.3 °C 29.89in /  1012.1hPa Calm   1mph /  1.6km/h 96% 4.21in /  106.93mm 7 W/m2
08:18 75.2 °F /  24 °C 74 °F /  23.3 °C 29.89in /  1012.1hPa WSW 0.3mph /  0.5km/h 4mph /  6.4km/h 96% 4.27in /  108.46mm 11 W/m2
Hartford County Weather
Compliments of Weather Underground - 4 mb